Airfield :
LOGIN :

Register | Disclaimer

   EN    FR    IT 

 










Legend :    VFR   Marginal VFR   IFR   Intensive IFR   Very Intensive IFR
Visi :
Ceiling :
>= 8 km
>= 3000ft
5 to 8 km
1000 to 3000 ft
1500m to 5 km
500 to 1000 ft
800 to 1500m
200 to 500 ft
< 800m
< 200 ft
Symbols :   Thunderstorms  Fog  Heavy snow  Heavy precipitations  Wind > 20 kt
SIGMETs :     Misc.  Thunderstorms  Icing  Turbulence  Mountain Waves  Volcanic Ashes







- Airport Elevation : 309 ft
- IATA code : FNI
- Download approach charts


LFTW - Nîmes Garons

CURRENT METAR :
  • 220030Z AUTO 32008KT 300V360 CAVOK 16/07 Q1023

EXPIRED METARs :
  • 220000Z AUTO 32008KT CAVOK 16/07 Q1023
  • 212330Z AUTO 33008KT CAVOK 16/07 Q1023
  • 212300Z AUTO 33009KT 300V360 CAVOK 16/06 Q1023
  • 212230Z AUTO 33012KT 300V360 CAVOK 16/06 Q1023
  • 212200Z AUTO 31009KT 280V340 CAVOK 16/07 Q1022

TAF TAF LFTW
Valid from the 21 at 15:00 until the 22 at 15:00 UTC


211400Z 2115/2215 VRB03KT CAVOK
BECMG 2118/2120 32015KT
TEMPO 2212/2215 32020G30KT
No reported NOTAMs for that airfield.



MET'MAP, your aeronautical weather chart ! - Copyright ORBIFLY December 2007 - Disclaimer

ORBIFLY MET'MAP TEAM :

Programming & Development : Alexandra Zaïnal
Concept & Development : Baudouin d'Aumeries
Co-Development & Prog : Marc-Olivier Méhu
Technical & hardware support : Manuel Goepfert

Contact : metmap@orbifly.com




SOURCES & CREDITS :

   NOAA